createdAt,value
2019-04-01T00:02:08.533Z,29.93
2019-04-01T00:04:35.548Z,27.37
2019-04-01T00:07:02.467Z,27.63
2019-04-01T00:09:29.382Z,27.87
2019-04-01T00:11:56.292Z,30.93
2019-04-01T00:14:23.227Z,27.00
2019-04-01T00:16:50.131Z,28.13
2019-04-01T00:19:17.080Z,25.93
2019-04-01T00:21:44.756Z,28.07
2019-04-01T00:24:11.025Z,29.93
2019-04-01T00:26:37.976Z,32.20
2019-04-01T00:29:05.353Z,27.60
2019-04-01T00:31:32.268Z,30.13
2019-04-01T00:33:59.665Z,29.20
2019-04-01T00:36:26.581Z,24.40
2019-04-01T00:38:53.501Z,29.93
2019-04-01T00:41:20.452Z,28.70
2019-04-01T00:43:51.839Z,29.00
2019-04-01T00:46:18.782Z,28.57
2019-04-01T00:48:45.728Z,31.33
2019-04-01T00:51:12.632Z,30.33
2019-04-01T00:53:39.541Z,30.97
2019-04-01T00:56:06.483Z,28.87
2019-04-01T00:58:33.399Z,30.17
2019-04-01T01:01:00.320Z,33.33
2019-04-01T01:03:27.252Z,35.83
2019-04-01T01:05:54.186Z,32.60
2019-04-01T01:08:21.098Z,31.27
2019-04-01T01:10:48.032Z,33.00
2019-04-01T01:13:15.409Z,30.23
2019-04-01T01:15:42.057Z,30.90
2019-04-01T01:18:08.994Z,29.17
2019-04-01T01:20:35.931Z,29.43
2019-04-01T01:23:02.855Z,36.33
2019-04-01T01:25:29.776Z,30.57
2019-04-01T01:27:56.689Z,29.87
2019-04-01T01:30:23.947Z,28.43
2019-04-01T01:32:50.884Z,35.30
2019-04-01T01:35:17.804Z,29.77
2019-04-01T01:37:44.733Z,29.97
2019-04-01T01:40:11.665Z,29.37
2019-04-01T01:42:38.576Z,34.23
2019-04-01T01:45:05.520Z,26.47
2019-04-01T01:47:32.454Z,28.63
2019-04-01T01:49:59.375Z,30.43
2019-04-01T01:52:26.294Z,29.47
2019-04-01T01:54:53.635Z,29.97
2019-04-01T01:57:20.590Z,27.00
2019-04-01T01:59:47.509Z,32.47
2019-04-01T02:02:14.523Z,29.17
2019-04-01T02:04:41.359Z,31.80
2019-04-01T02:07:08.297Z,30.30
2019-04-01T02:09:35.233Z,30.87
2019-04-01T02:12:02.156Z,30.70
2019-04-01T02:14:29.067Z,30.13
2019-04-01T02:16:55.997Z,30.70
2019-04-01T02:19:22.908Z,30.80
2019-04-01T02:21:49.844Z,32.70
2019-04-01T02:24:16.820Z,33.13
2019-04-01T02:26:43.697Z,30.30
2019-04-01T02:29:10.602Z,32.80
2019-04-01T02:31:37.733Z,30.83
2019-04-01T02:34:04.789Z,29.20
2019-04-01T02:36:31.580Z,30.83
2019-04-01T02:38:58.506Z,30.87
2019-04-01T02:41:25.434Z,29.30
2019-04-01T02:43:52.361Z,39.30
2019-04-01T02:46:19.305Z,31.87
2019-04-01T02:48:46.213Z,33.70
2019-04-01T02:51:13.129Z,30.30
2019-04-01T02:53:40.073Z,32.50
2019-04-01T02:56:06.973Z,32.53
2019-04-01T02:58:33.905Z,30.97
2019-04-01T03:01:00.872Z,33.87
2019-04-01T03:03:27.802Z,32.20
2019-04-01T03:05:54.693Z,33.10
2019-04-01T03:08:21.612Z,31.53
2019-04-01T03:10:48.647Z,33.10
2019-04-01T03:13:15.569Z,30.60
2019-04-01T03:15:42.497Z,30.33
2019-04-01T03:18:09.409Z,33.40
2019-04-01T03:20:36.325Z,31.93
2019-04-01T03:23:03.249Z,34.00
2019-04-01T03:25:30.168Z,33.30
2019-04-01T03:27:57.092Z,34.50
2019-04-01T03:30:24.051Z,33.10
2019-04-01T03:32:51.141Z,34.50
2019-04-01T03:35:18.081Z,33.50
2019-04-01T03:37:45.001Z,33.80
2019-04-01T03:40:11.921Z,33.40
2019-04-01T03:42:38.840Z,33.67
2019-04-01T03:45:05.808Z,34.87
2019-04-01T03:47:32.720Z,33.77
2019-04-01T03:49:59.637Z,33.83
2019-04-01T03:52:26.571Z,34.60
2019-04-01T03:54:53.465Z,39.60
2019-04-01T03:57:20.376Z,37.03
2019-04-01T03:59:47.317Z,36.43
2019-04-01T04:02:14.255Z,31.77
2019-04-01T04:04:41.166Z,36.27
2019-04-01T04:07:08.109Z,38.03
2019-04-01T04:09:35.047Z,33.53
2019-04-01T04:12:01.964Z,32.53
2019-04-01T04:14:28.891Z,35.60
2019-04-01T04:16:55.809Z,34.13
2019-04-01T04:19:22.729Z,33.03
2019-04-01T04:21:49.697Z,36.27
2019-04-01T04:24:16.624Z,37.77
2019-04-01T04:26:43.561Z,38.43
2019-04-01T04:29:10.497Z,36.83
2019-04-01T04:31:37.439Z,38.43
2019-04-01T04:34:04.617Z,36.20
2019-04-01T04:36:31.564Z,36.20
2019-04-01T04:38:58.492Z,36.27
2019-04-01T04:41:25.460Z,35.07
2019-04-01T04:43:52.418Z,36.90
2019-04-01T04:46:21.310Z,38.37
2019-04-01T04:48:46.273Z,38.90
2019-04-01T04:51:13.223Z,37.97
2019-04-01T04:53:40.183Z,35.53
2019-04-01T04:56:07.160Z,34.20
2019-04-01T04:58:34.048Z,37.57
2019-04-01T05:01:00.972Z,36.60
2019-04-01T05:03:27.887Z,37.10
2019-04-01T05:05:54.838Z,35.63
2019-04-01T05:08:21.761Z,38.47
2019-04-01T05:10:48.668Z,38.03
2019-04-01T05:13:15.644Z,36.30
2019-04-01T05:15:42.563Z,37.07
2019-04-01T05:18:09.474Z,35.67
2019-04-01T05:20:37.044Z,39.07
2019-04-01T05:23:03.968Z,37.00
2019-04-01T05:25:32.000Z,32.37
2019-04-01T05:27:58.274Z,38.50
2019-04-01T05:30:25.197Z,36.90
2019-04-01T05:32:52.104Z,37.00
2019-04-01T05:35:19.526Z,78.23
2019-04-01T05:37:46.358Z,38.40
2019-04-01T05:40:13.276Z,37.37
2019-04-01T05:42:40.209Z,40.67
2019-04-01T05:45:07.128Z,54.73
2019-04-01T05:47:39.280Z,55.90
2019-04-01T05:50:06.214Z,68.40
2019-04-01T05:52:33.155Z,47.60
2019-04-01T05:55:00.368Z,37.67
2019-04-01T05:57:27.028Z,36.17
2019-04-01T05:59:53.976Z,42.33
2019-04-01T06:02:20.904Z,37.67
2019-04-01T06:04:47.855Z,40.80
2019-04-01T06:07:14.796Z,40.57
2019-04-01T06:09:41.879Z,37.03
2019-04-01T06:12:08.847Z,38.50
2019-04-01T06:14:35.783Z,41.60
2019-04-01T06:17:02.709Z,43.63
2019-04-01T06:19:29.664Z,40.03
2019-04-01T06:21:56.604Z,40.07
2019-04-01T06:24:24.870Z,35.60
2019-04-01T06:26:50.450Z,38.83
2019-04-01T06:29:17.389Z,36.40
2019-04-01T06:31:44.402Z,38.13
2019-04-01T06:34:11.333Z,35.07
2019-04-01T06:36:39.596Z,35.27
2019-04-01T06:39:06.520Z,36.37
2019-04-01T06:41:33.504Z,39.20
2019-04-01T06:44:00.418Z,38.30
2019-04-01T06:46:27.368Z,37.97
2019-04-01T06:48:54.361Z,36.57
2019-04-01T06:51:21.291Z,36.10
2019-04-01T06:53:48.229Z,36.23
2019-04-01T06:56:15.160Z,37.57
2019-04-01T06:58:42.101Z,36.40
2019-04-01T07:01:09.028Z,35.83
2019-04-01T07:03:35.989Z,40.00
2019-04-01T07:06:02.935Z,36.10
2019-04-01T07:08:29.856Z,36.10
2019-04-01T07:10:56.788Z,35.77
2019-04-01T07:13:23.704Z,37.43
2019-04-01T07:15:50.624Z,38.50
2019-04-01T07:18:17.565Z,35.80
2019-04-01T07:20:44.491Z,36.30
2019-04-01T07:23:11.407Z,34.90
2019-04-01T07:25:38.409Z,36.87
2019-04-01T07:28:05.362Z,35.17
2019-04-01T07:30:32.289Z,36.43
2019-04-01T07:32:59.243Z,34.80
2019-04-01T07:35:26.178Z,36.47
2019-04-01T07:37:53.292Z,33.70
2019-04-01T07:40:20.227Z,36.93
2019-04-01T07:42:47.143Z,33.27
2019-04-01T07:45:14.067Z,36.97
2019-04-01T07:47:41.025Z,36.57
2019-04-01T07:50:07.960Z,38.63
2019-04-01T07:52:34.957Z,35.97
2019-04-01T07:55:01.889Z,37.23
2019-04-01T07:57:32.494Z,40.77
2019-04-01T07:59:56.952Z,32.63
2019-04-01T08:02:23.085Z,35.67
2019-04-01T08:04:50.006Z,35.40
2019-04-01T08:07:16.923Z,32.90
2019-04-01T08:09:43.882Z,31.57
2019-04-01T08:12:10.799Z,35.07
2019-04-01T08:14:37.757Z,34.87
2019-04-01T08:17:04.790Z,32.73
2019-04-01T08:19:31.705Z,36.20
2019-04-01T08:21:58.636Z,34.10
2019-04-01T08:24:25.616Z,33.37
2019-04-01T08:26:52.574Z,35.27
2019-04-01T08:29:30.145Z,34.03
2019-04-01T08:31:46.420Z,32.37
2019-04-01T08:34:13.328Z,37.07
2019-04-01T08:36:40.269Z,32.97
2019-04-01T08:39:11.787Z,32.70
2019-04-01T08:41:38.681Z,33.90
2019-04-01T08:44:05.615Z,31.67
2019-04-01T08:46:32.551Z,30.70
2019-04-01T08:48:59.460Z,32.33
2019-04-01T08:51:26.382Z,34.10
2019-04-01T08:53:53.345Z,29.53
2019-04-01T08:56:20.270Z,37.53
2019-04-01T08:58:47.191Z,31.07
2019-04-01T09:01:14.123Z,29.43
2019-04-01T09:03:41.043Z,30.00
2019-04-01T09:06:08.089Z,35.07
2019-04-01T09:08:35.748Z,31.40
2019-04-01T09:11:02.669Z,31.23
2019-04-01T09:13:29.746Z,32.27
2019-04-01T09:15:56.644Z,32.70
2019-04-01T09:18:23.577Z,32.17
2019-04-01T09:20:50.503Z,29.20
2019-04-01T09:23:17.441Z,28.77
2019-04-01T09:25:44.353Z,28.13
2019-04-01T09:28:11.295Z,33.47
2019-04-01T09:30:38.252Z,26.83
2019-04-01T09:33:05.167Z,28.97
2019-04-01T09:35:44.545Z,25.83
2019-04-01T09:38:11.716Z,26.60
2019-04-01T09:40:41.040Z,25.77
2019-04-01T09:43:07.996Z,25.97
2019-04-01T09:45:35.001Z,28.60
2019-04-01T09:48:01.897Z,25.97
2019-04-01T09:50:28.815Z,27.20
2019-04-01T09:52:55.740Z,26.53
2019-04-01T09:55:22.764Z,30.47
2019-04-01T09:57:54.345Z,26.80
2019-04-01T10:00:21.292Z,24.73
2019-04-01T10:02:50.092Z,24.13
2019-04-01T10:05:17.065Z,25.60
2019-04-01T10:07:44.092Z,24.30
2019-04-01T10:10:11.008Z,23.90
2019-04-01T10:12:38.029Z,23.13
2019-04-01T10:15:05.175Z,22.87
2019-04-01T10:17:32.117Z,21.57
2019-04-01T10:20:00.918Z,21.10
2019-04-01T10:22:25.985Z,20.77
2019-04-01T10:24:53.163Z,22.23
2019-04-01T10:27:20.122Z,23.17
2019-04-01T10:29:47.036Z,21.50
2019-04-01T10:32:13.943Z,22.17
2019-04-01T10:34:42.194Z,21.83
2019-04-01T10:37:09.139Z,20.80
2019-04-01T10:39:36.053Z,19.63
2019-04-01T10:42:03.492Z,21.47
2019-04-01T10:44:30.426Z,21.00
2019-04-01T10:46:57.438Z,20.67
2019-04-01T10:49:24.399Z,20.70
2019-04-01T10:51:51.226Z,20.93
2019-04-01T10:54:18.184Z,19.80
2019-04-01T10:56:45.162Z,19.03
2019-04-01T10:59:12.087Z,20.60
2019-04-01T11:01:38.976Z,19.70
2019-04-01T11:04:06.633Z,19.63
2019-04-01T11:06:33.592Z,20.47
2019-04-01T11:09:00.470Z,18.67
2019-04-01T11:11:27.625Z,19.00
2019-04-01T11:13:54.410Z,18.37
2019-04-01T11:16:21.253Z,19.37
2019-04-01T11:18:48.178Z,19.03
2019-04-01T11:21:15.086Z,16.27
2019-04-01T11:23:42.014Z,21.60
2019-04-01T11:26:08.980Z,18.73
2019-04-01T11:28:35.919Z,18.17
2019-04-01T11:31:02.945Z,18.77
2019-04-01T11:33:29.814Z,17.43
2019-04-01T11:35:56.760Z,20.50
2019-04-01T11:38:23.720Z,17.87
2019-04-01T11:40:50.634Z,16.30
2019-04-01T11:43:18.790Z,17.23
2019-04-01T11:45:45.750Z,20.53
2019-04-01T11:48:12.677Z,16.37
2019-04-01T11:50:39.596Z,17.00
2019-04-01T11:53:07.156Z,15.97
2019-04-01T11:55:33.459Z,17.13
2019-04-01T11:58:00.731Z,17.67
2019-04-01T12:00:28.537Z,17.03
2019-04-01T12:02:55.533Z,16.17
2019-04-01T12:05:22.452Z,16.50
2019-04-01T12:07:49.380Z,15.07
2019-04-01T12:10:16.336Z,15.53
2019-04-01T12:12:43.269Z,15.87
2019-04-01T12:15:12.359Z,16.97
2019-04-01T12:17:37.240Z,17.33
2019-04-01T12:20:04.268Z,16.73
2019-04-01T12:22:31.214Z,15.47
2019-04-01T12:24:58.190Z,18.50
2019-04-01T12:27:25.128Z,15.93
2019-04-01T12:29:52.067Z,16.07
2019-04-01T12:32:19.777Z,16.07
2019-04-01T12:34:46.758Z,16.57
2019-04-01T12:37:12.937Z,17.60
2019-04-01T12:39:41.055Z,16.93
2019-04-01T12:42:07.108Z,18.00
2019-04-01T12:44:35.371Z,18.23
2019-04-01T12:47:02.644Z,16.80
2019-04-01T12:49:31.042Z,16.60
2019-04-01T12:51:58.401Z,17.87
2019-04-01T12:54:25.543Z,15.70
2019-04-01T12:56:52.445Z,15.23
2019-04-01T12:59:19.392Z,14.97
2019-04-01T13:01:46.471Z,16.17
2019-04-01T13:04:13.393Z,15.70
2019-04-01T13:06:40.340Z,14.57
2019-04-01T13:09:07.294Z,14.87
2019-04-01T13:11:34.699Z,12.40
2019-04-01T13:14:01.623Z,15.00
2019-04-01T13:16:28.543Z,15.80
2019-04-01T13:18:55.497Z,15.07
2019-04-01T13:21:22.435Z,16.03
2019-04-01T13:23:49.368Z,16.60
2019-04-01T13:26:16.280Z,19.93
2019-04-01T13:28:43.201Z,15.90
2019-04-01T13:31:10.148Z,17.30
2019-04-01T13:33:37.069Z,15.37
2019-04-01T13:36:07.571Z,16.47
2019-04-01T13:38:30.962Z,13.13
2019-04-01T13:40:57.900Z,13.60
2019-04-01T13:43:24.846Z,13.73
2019-04-01T13:45:52.119Z,15.40
2019-04-01T13:48:19.600Z,14.80
2019-04-01T13:50:46.075Z,14.43
2019-04-01T13:53:13.152Z,15.67
2019-04-01T13:55:40.070Z,15.17
2019-04-01T13:58:07.012Z,15.03
2019-04-01T14:00:33.953Z,14.70
2019-04-01T14:03:00.877Z,14.27
2019-04-01T14:05:27.854Z,13.97
2019-04-01T14:07:54.798Z,17.37
2019-04-01T14:10:21.695Z,16.93
2019-04-01T14:12:48.620Z,14.03
2019-04-01T14:15:15.604Z,14.00
2019-04-01T14:17:42.522Z,13.57
2019-04-01T14:20:10.037Z,14.23
2019-04-01T14:22:36.967Z,16.63
2019-04-01T14:25:07.158Z,12.63
2019-04-01T14:27:31.017Z,13.97
2019-04-01T14:29:57.936Z,15.60
2019-04-01T14:32:24.885Z,16.53
2019-04-01T14:34:52.079Z,14.63
2019-04-01T14:37:25.591Z,14.23
2019-04-01T14:39:47.328Z,13.93
2019-04-01T14:42:14.258Z,14.03
2019-04-01T14:44:41.272Z,16.10
2019-04-01T14:47:09.744Z,13.60
2019-04-01T14:49:36.641Z,13.87
2019-04-01T14:52:03.586Z,16.10
2019-04-01T14:54:30.510Z,13.70
2019-04-01T14:56:57.431Z,14.47
2019-04-01T14:59:24.370Z,13.10
2019-04-01T15:01:51.285Z,13.63
2019-04-01T15:04:18.243Z,13.50
2019-04-01T15:06:45.516Z,14.73
2019-04-01T15:09:12.115Z,11.63
2019-04-01T15:11:39.048Z,13.60
2019-04-01T15:14:05.996Z,13.70
2019-04-01T15:16:32.989Z,14.47
2019-04-01T15:18:59.915Z,11.50
2019-04-01T15:21:26.860Z,12.53
2019-04-01T15:23:53.825Z,13.57
2019-04-01T15:26:20.769Z,14.33
2019-04-01T15:28:47.717Z,12.03
2019-04-01T15:31:14.670Z,12.33
2019-04-01T15:33:41.645Z,12.97
2019-04-01T15:36:08.578Z,12.10
2019-04-01T15:38:35.642Z,15.43
2019-04-01T15:41:02.561Z,16.77
2019-04-01T15:43:29.536Z,13.30
2019-04-01T15:45:56.464Z,11.30
2019-04-01T15:48:23.587Z,13.10
2019-04-01T15:50:50.544Z,12.40
2019-04-01T15:53:17.485Z,12.03
2019-04-01T15:55:44.428Z,15.17
2019-04-01T15:58:11.372Z,14.47
2019-04-01T16:00:38.312Z,12.50
2019-04-01T16:03:05.221Z,15.60
2019-04-01T16:05:32.185Z,11.90
2019-04-01T16:07:59.143Z,14.00
2019-04-01T16:10:29.190Z,12.27
2019-04-01T16:12:53.001Z,13.27
2019-04-01T16:15:19.971Z,13.33
2019-04-01T16:17:46.940Z,13.43
2019-04-01T16:20:13.894Z,13.27
2019-04-01T16:22:43.518Z,16.43
2019-04-01T16:25:07.779Z,14.40
2019-04-01T16:27:34.725Z,14.33
2019-04-01T16:30:01.648Z,16.13
2019-04-01T16:32:29.365Z,12.93
2019-04-01T16:34:55.535Z,15.50
2019-04-01T16:37:22.468Z,13.57
2019-04-01T16:39:49.586Z,13.67
2019-04-01T16:42:16.508Z,15.53
2019-04-01T16:44:44.086Z,13.63
2019-04-01T16:47:11.031Z,13.93
2019-04-01T16:49:37.762Z,13.20
2019-04-01T16:52:04.727Z,13.77
2019-04-01T16:54:32.582Z,13.33
2019-04-01T16:56:59.504Z,14.77
2019-04-01T16:59:28.120Z,12.83
2019-04-01T17:01:53.339Z,11.47
2019-04-01T17:04:20.964Z,12.40
2019-04-01T17:06:48.318Z,12.63
2019-04-01T17:09:15.224Z,12.43
2019-04-01T17:11:42.171Z,13.20
2019-04-01T17:14:09.580Z,12.60
2019-04-01T17:16:36.016Z,12.60
2019-04-01T17:19:02.945Z,12.60
2019-04-01T17:21:29.863Z,11.43
2019-04-01T17:23:56.792Z,16.57
2019-04-01T17:26:23.737Z,13.73
2019-04-01T17:28:51.733Z,13.77
2019-04-01T17:31:19.036Z,12.50
2019-04-01T17:33:46.849Z,12.93
2019-04-01T17:36:15.759Z,12.23
2019-04-01T17:38:39.804Z,12.13
2019-04-01T17:41:06.776Z,12.27
2019-04-01T17:43:33.687Z,14.27
2019-04-01T17:46:00.657Z,12.40
2019-04-01T17:48:27.598Z,11.77
2019-04-01T17:50:54.811Z,12.17
2019-04-01T17:53:22.277Z,11.60
2019-04-01T17:55:48.676Z,11.90
2019-04-01T17:58:15.947Z,12.93
2019-04-01T18:00:45.058Z,13.40
2019-04-01T18:03:11.995Z,26.60
2019-04-01T18:05:38.901Z,13.80
2019-04-01T18:08:05.931Z,11.30
2019-04-01T18:10:33.519Z,15.30
2019-04-01T18:13:00.461Z,13.60
2019-04-01T18:15:27.363Z,14.50
2019-04-01T18:17:54.311Z,11.90
2019-04-01T18:20:21.201Z,12.37
2019-04-01T18:22:48.116Z,12.40
2019-04-01T18:25:15.035Z,12.67
2019-04-01T18:27:42.029Z,11.87
2019-04-01T18:30:08.901Z,11.93
2019-04-01T18:32:35.887Z,12.30
2019-04-01T18:35:04.175Z,13.20
2019-04-01T18:37:30.111Z,14.90
2019-04-01T18:39:57.343Z,12.07
2019-04-01T18:42:26.600Z,12.63
2019-04-01T18:44:50.940Z,14.10
2019-04-01T18:47:18.069Z,11.47
2019-04-01T18:49:45.937Z,15.47
2019-04-01T18:52:13.538Z,12.07
2019-04-01T18:54:40.826Z,14.13
2019-04-01T18:57:07.724Z,11.83
2019-04-01T18:59:34.631Z,14.13
2019-04-01T19:02:01.589Z,12.27
2019-04-01T19:04:28.504Z,12.53
2019-04-01T19:06:55.443Z,12.40
2019-04-01T19:09:32.508Z,12.90
2019-04-01T19:12:03.865Z,12.30
2019-04-01T19:14:23.999Z,13.00
2019-04-01T19:16:50.924Z,12.53
2019-04-01T19:19:17.818Z,12.37
2019-04-01T19:21:44.733Z,14.83
2019-04-01T19:24:11.786Z,12.63
2019-04-01T19:26:38.708Z,13.37
2019-04-01T19:29:05.645Z,16.07
2019-04-01T19:31:32.577Z,14.47
2019-04-01T19:33:59.572Z,14.03
2019-04-01T19:36:26.540Z,14.30
2019-04-01T19:38:54.494Z,17.67
2019-04-01T19:41:20.865Z,13.50
2019-04-01T19:43:47.462Z,14.27
2019-04-01T19:46:14.424Z,14.60
2019-04-01T19:48:41.565Z,13.17
2019-04-01T19:51:08.486Z,13.73
2019-04-01T19:53:37.007Z,13.73
2019-04-01T19:56:03.945Z,13.77
2019-04-01T19:58:30.879Z,14.30
2019-04-01T20:00:57.826Z,14.27
2019-04-01T20:03:25.547Z,15.13
2019-04-01T20:05:51.747Z,13.83
2019-04-01T20:08:18.713Z,15.43
2019-04-01T20:10:46.264Z,13.97
2019-04-01T20:13:12.597Z,14.27
2019-04-01T20:15:40.326Z,12.30
2019-04-01T20:18:07.821Z,12.13
2019-04-01T20:20:33.396Z,13.30
2019-04-01T20:23:00.524Z,12.43
2019-04-01T20:25:27.638Z,12.57
2019-04-01T20:27:54.553Z,16.50
2019-04-01T20:30:21.475Z,14.17
2019-04-01T20:32:49.192Z,13.37
2019-04-01T20:35:23.359Z,13.93
2019-04-01T20:37:42.442Z,13.90
2019-04-01T20:40:09.246Z,16.20
2019-04-01T20:42:36.400Z,14.47
2019-04-01T20:45:04.088Z,16.30
2019-04-01T20:47:31.012Z,13.10
2019-04-01T20:49:58.384Z,13.00
2019-04-01T20:52:24.866Z,17.10
2019-04-01T20:54:52.040Z,13.27
2019-04-01T20:57:21.793Z,17.13
2019-04-01T20:59:45.960Z,18.37
2019-04-01T21:02:13.899Z,14.43
2019-04-01T21:04:40.808Z,15.13
2019-04-01T21:07:09.847Z,16.00
2019-04-01T21:09:34.697Z,14.50
2019-04-01T21:12:03.063Z,13.67
2019-04-01T21:14:28.620Z,14.50
2019-04-01T21:16:56.021Z,18.40
2019-04-01T21:19:22.468Z,16.10
2019-04-01T21:21:49.456Z,17.97
2019-04-01T21:24:16.378Z,15.40
2019-04-01T21:26:43.289Z,15.13
2019-04-01T21:29:10.254Z,15.43
2019-04-01T21:31:37.169Z,13.90
2019-04-01T21:34:04.092Z,16.27
2019-04-01T21:36:31.085Z,16.37
2019-04-01T21:38:58.017Z,17.10
2019-04-01T21:41:25.382Z,15.77
2019-04-01T21:43:51.917Z,17.50
2019-04-01T21:46:18.818Z,15.43
2019-04-01T21:48:45.736Z,17.80
2019-04-01T21:51:12.677Z,14.70
2019-04-01T21:53:39.580Z,15.77
2019-04-01T21:56:06.714Z,16.60
2019-04-01T21:58:33.648Z,16.80
2019-04-01T22:01:01.668Z,16.23
2019-04-01T22:03:28.593Z,17.60
2019-04-01T22:05:55.588Z,14.97
2019-04-01T22:08:22.534Z,15.00
2019-04-01T22:10:49.503Z,15.90
2019-04-01T22:13:16.452Z,17.43
2019-04-01T22:15:43.421Z,20.30
2019-04-01T22:18:10.355Z,16.50
2019-04-01T22:20:38.968Z,18.87
2019-04-01T22:23:05.252Z,16.97
2019-04-01T22:25:31.140Z,19.57
2019-04-01T22:27:58.102Z,24.80
2019-04-01T22:30:25.016Z,16.60
2019-04-01T22:32:51.948Z,18.33
2019-04-01T22:35:18.896Z,16.53
2019-04-01T22:37:45.812Z,19.03
2019-04-01T22:40:12.723Z,16.93
2019-04-01T22:42:39.708Z,17.10
2019-04-01T22:45:12.286Z,15.97
2019-04-01T22:47:38.688Z,16.93
2019-04-01T22:50:05.623Z,16.90
2019-04-01T22:52:32.537Z,17.90
2019-04-01T22:54:59.560Z,17.13
2019-04-01T22:57:26.814Z,17.10
2019-04-01T22:59:54.591Z,18.87
2019-04-01T23:02:21.533Z,18.20
2019-04-01T23:04:48.484Z,18.93
2019-04-01T23:07:15.411Z,18.37
2019-04-01T23:09:42.344Z,19.90
2019-04-01T23:12:09.285Z,25.47
2019-04-01T23:14:36.213Z,21.30
2019-04-01T23:17:03.143Z,18.57
2019-04-01T23:19:30.232Z,17.97
2019-04-01T23:21:57.144Z,18.73
2019-04-01T23:24:24.062Z,19.57
2019-04-01T23:26:50.996Z,19.10
2019-04-01T23:29:17.909Z,20.07
2019-04-01T23:31:44.824Z,19.63
2019-04-01T23:34:11.788Z,18.97
2019-04-01T23:36:38.696Z,20.40
2019-04-01T23:39:06.296Z,19.93
2019-04-01T23:41:33.223Z,20.33
2019-04-01T23:44:00.145Z,19.47
2019-04-01T23:46:27.069Z,18.53
2019-04-01T23:48:54.024Z,19.77
2019-04-01T23:51:20.957Z,18.57
2019-04-01T23:53:47.892Z,20.53
2019-04-01T23:56:14.839Z,19.73
2019-04-01T23:58:43.141Z,19.00
